createdAt,value
2019-05-29T00:00:30.122Z,79.10
2019-05-29T00:03:19.898Z,78.00
2019-05-29T00:05:48.192Z,77.20
2019-05-29T00:08:16.757Z,75.70
2019-05-29T00:10:44.084Z,76.30
2019-05-29T00:13:12.354Z,77.20
2019-05-29T00:15:40.322Z,78.90
2019-05-29T00:18:19.842Z,78.70
2019-05-29T00:20:56.538Z,81.20
2019-05-29T00:23:29.980Z,80.70
2019-05-29T00:25:57.417Z,80.10
2019-05-29T00:28:30.915Z,80.50
2019-05-29T00:30:59.319Z,78.60
2019-05-29T00:33:27.787Z,80.10
2019-05-29T00:35:56.052Z,79.80
2019-05-29T00:38:23.733Z,79.30
2019-05-29T00:40:51.368Z,78.20
2019-05-29T00:43:19.308Z,80.60
2019-05-29T00:45:47.282Z,79.10
2019-05-29T00:48:15.913Z,79.90
2019-05-29T00:50:43.816Z,80.20
2019-05-29T00:53:12.155Z,82.00
2019-05-29T00:55:40.446Z,80.20
2019-05-29T00:58:08.802Z,81.50
2019-05-29T01:00:36.185Z,81.80
2019-05-29T01:03:11.647Z,82.60
2019-05-29T01:05:39.335Z,81.90
2019-05-29T01:08:06.786Z,80.40
2019-05-29T01:10:35.182Z,82.20
2019-05-29T01:13:07.010Z,81.20
2019-05-29T01:15:36.469Z,81.90
2019-05-29T01:18:03.994Z,80.80
2019-05-29T01:20:31.416Z,79.80
2019-05-29T01:22:58.784Z,80.90
2019-05-29T01:25:27.287Z,79.60
2019-05-29T01:27:57.391Z,80.70
2019-05-29T01:30:24.785Z,79.50
2019-05-29T01:32:56.820Z,80.10
2019-05-29T01:35:24.473Z,79.20
2019-05-29T01:37:51.817Z,80.90
2019-05-29T01:40:24.689Z,78.80
2019-05-29T01:42:53.364Z,81.20
2019-05-29T01:45:21.502Z,78.90
2019-05-29T01:47:49.211Z,80.10
2019-05-29T01:50:28.202Z,80.70
2019-05-29T01:52:57.704Z,80.50
2019-05-29T01:55:25.519Z,80.20
2019-05-29T01:57:52.849Z,80.10
2019-05-29T02:00:21.997Z,82.10
2019-05-29T02:02:55.756Z,82.90
2019-05-29T02:05:24.146Z,82.80
2019-05-29T02:07:51.787Z,83.70
2019-05-29T02:10:22.217Z,80.70
2019-05-29T02:12:50.008Z,81.00
2019-05-29T02:15:25.906Z,80.80
2019-05-29T02:17:47.328Z,80.60
2019-05-29T02:20:15.071Z,80.20
2019-05-29T02:22:43.240Z,81.00
2019-05-29T02:25:11.254Z,81.30
2019-05-29T02:27:43.073Z,79.90
2019-05-29T02:30:10.862Z,83.70
2019-05-29T02:32:38.562Z,82.00
2019-05-29T02:35:06.090Z,80.20
2019-05-29T02:37:33.501Z,80.60
2019-05-29T02:40:00.977Z,84.20
2019-05-29T02:42:29.147Z,84.00
2019-05-29T02:44:59.944Z,81.30
2019-05-29T02:47:28.047Z,84.00
2019-05-29T02:49:57.017Z,83.70
2019-05-29T02:52:26.128Z,83.40
2019-05-29T02:54:54.597Z,79.30
2019-05-29T02:57:22.800Z,81.50
2019-05-29T02:59:50.454Z,84.30
2019-05-29T03:02:25.535Z,80.80
2019-05-29T03:04:53.088Z,80.10
2019-05-29T03:07:28.550Z,83.10
2019-05-29T03:09:57.102Z,84.30
2019-05-29T03:12:37.421Z,85.40
2019-05-29T03:15:11.938Z,81.90
2019-05-29T03:17:40.131Z,81.90
2019-05-29T03:20:15.845Z,82.00
2019-05-29T03:22:45.078Z,81.90
2019-05-29T03:25:14.137Z,81.70
2019-05-29T03:27:42.609Z,82.20
2019-05-29T03:30:11.195Z,80.70
2019-05-29T03:32:50.491Z,82.80
2019-05-29T03:35:19.861Z,85.00
2019-05-29T03:37:47.916Z,80.80
2019-05-29T03:40:16.123Z,84.00
2019-05-29T03:42:44.293Z,81.20
2019-05-29T03:45:13.262Z,83.30
2019-05-29T03:47:42.798Z,85.10
2019-05-29T03:50:15.727Z,83.20
2019-05-29T03:52:43.091Z,85.60
2019-05-29T03:55:16.247Z,86.00
2019-05-29T03:57:44.798Z,86.40
2019-05-29T04:00:12.699Z,85.80
2019-05-29T04:02:41.374Z,85.90
2019-05-29T04:05:09.813Z,86.40
2019-05-29T04:07:40.675Z,84.00
2019-05-29T04:10:08.755Z,85.90
2019-05-29T04:12:41.547Z,85.50
2019-05-29T04:15:10.954Z,83.80
2019-05-29T04:17:39.854Z,85.00
2019-05-29T04:20:07.633Z,86.80
2019-05-29T04:22:42.421Z,82.90
2019-05-29T04:25:12.169Z,83.70
2019-05-29T04:27:41.050Z,88.00
2019-05-29T04:30:14.779Z,87.40
2019-05-29T04:32:42.789Z,86.80
2019-05-29T04:35:11.683Z,85.40
2019-05-29T04:37:43.485Z,86.50
2019-05-29T04:40:13.463Z,87.70
2019-05-29T04:42:43.424Z,86.90
2019-05-29T04:45:12.133Z,88.20
2019-05-29T04:47:44.837Z,89.80
2019-05-29T04:50:14.690Z,89.80
2019-05-29T04:52:42.442Z,89.60
2019-05-29T04:55:12.313Z,89.00
2019-05-29T04:57:40.410Z,90.00
2019-05-29T05:00:08.446Z,89.00
2019-05-29T05:02:37.145Z,90.00
2019-05-29T05:05:06.229Z,89.00
2019-05-29T05:07:37.467Z,88.90
2019-05-29T05:10:05.643Z,89.20
2019-05-29T05:12:35.675Z,90.00
2019-05-29T05:15:04.160Z,89.40
2019-05-29T05:17:32.416Z,88.40
2019-05-29T05:20:01.431Z,87.20
2019-05-29T05:22:32.035Z,86.60
2019-05-29T05:25:12.076Z,87.10
2019-05-29T05:27:41.339Z,83.30
2019-05-29T05:30:09.473Z,84.00
2019-05-29T05:32:37.290Z,79.90
2019-05-29T05:35:05.973Z,81.00
2019-05-29T05:37:41.121Z,80.70
2019-05-29T05:40:10.425Z,80.20
2019-05-29T05:42:41.638Z,78.40
2019-05-29T05:45:10.033Z,79.30
2019-05-29T05:47:53.620Z,78.20
2019-05-29T05:50:10.050Z,75.60
2019-05-29T05:52:42.687Z,73.70
2019-05-29T05:55:16.270Z,74.70
2019-05-29T05:57:45.123Z,70.90
2019-05-29T06:00:12.959Z,69.10
2019-05-29T06:02:42.259Z,69.90
2019-05-29T06:05:10.498Z,70.60
2019-05-29T06:07:42.509Z,67.80
2019-05-29T06:10:10.397Z,67.70
2019-05-29T06:12:40.617Z,63.40
2019-05-29T06:15:08.869Z,65.10
2019-05-29T06:17:36.722Z,63.80
2019-05-29T06:20:06.130Z,62.10
2019-05-29T06:22:35.155Z,64.20
2019-05-29T06:25:03.309Z,62.60
2019-05-29T06:27:33.476Z,60.60
2019-05-29T06:30:04.954Z,61.10
2019-05-29T06:32:33.554Z,58.10
2019-05-29T06:35:02.166Z,60.00
2019-05-29T06:37:30.251Z,59.00
2019-05-29T06:39:58.937Z,54.70
2019-05-29T06:42:27.804Z,56.70
2019-05-29T06:44:55.671Z,54.30
2019-05-29T06:47:23.572Z,52.40
2019-05-29T06:49:51.769Z,54.20
2019-05-29T06:52:19.534Z,52.60
2019-05-29T06:54:50.558Z,50.70
2019-05-29T06:57:20.002Z,51.80
2019-05-29T06:59:49.004Z,49.40
2019-05-29T07:02:16.956Z,50.90
2019-05-29T07:04:44.953Z,47.00
2019-05-29T07:07:13.126Z,49.80
2019-05-29T07:09:43.045Z,48.60
2019-05-29T07:12:22.001Z,47.40
2019-05-29T07:14:52.208Z,44.90
2019-05-29T07:17:20.139Z,44.40
2019-05-29T07:20:02.946Z,46.80
2019-05-29T07:22:19.065Z,45.70
2019-05-29T07:24:50.536Z,44.90
2019-05-29T07:27:27.703Z,44.10
2019-05-29T07:29:57.307Z,41.30
2019-05-29T07:32:25.454Z,43.90
2019-05-29T07:35:03.194Z,41.40
2019-05-29T07:37:22.906Z,44.70
2019-05-29T07:39:54.099Z,42.30
2019-05-29T07:42:29.449Z,41.80
2019-05-29T07:44:59.753Z,40.70
2019-05-29T07:47:27.639Z,39.70
2019-05-29T07:49:56.074Z,37.60
2019-05-29T07:52:27.220Z,37.90
2019-05-29T07:54:57.069Z,37.60
2019-05-29T07:57:29.387Z,39.40
2019-05-29T08:00:01.571Z,37.60
2019-05-29T08:02:30.499Z,38.60
2019-05-29T08:04:59.595Z,39.00
2019-05-29T08:07:31.328Z,40.00
2019-05-29T08:09:59.418Z,40.00
2019-05-29T08:12:41.082Z,38.20
2019-05-29T08:15:08.069Z,37.80
2019-05-29T08:17:46.084Z,37.90
2019-05-29T08:20:16.780Z,37.90
2019-05-29T08:22:44.570Z,37.40
2019-05-29T08:25:12.255Z,35.30
2019-05-29T08:27:40.902Z,34.10
2019-05-29T08:30:11.219Z,37.70
2019-05-29T08:32:43.535Z,34.10
2019-05-29T08:35:22.214Z,34.30
2019-05-29T08:37:52.222Z,36.60
2019-05-29T08:40:20.413Z,34.60
2019-05-29T08:42:49.420Z,34.00
2019-05-29T08:45:29.411Z,36.10
2019-05-29T08:47:59.541Z,35.70
2019-05-29T08:50:30.068Z,35.00
2019-05-29T08:52:58.089Z,33.70
2019-05-29T08:55:28.493Z,34.50
2019-05-29T08:57:57.608Z,33.50
2019-05-29T09:00:26.028Z,32.10
2019-05-29T09:02:58.489Z,32.90
2019-05-29T09:05:26.563Z,32.00
2019-05-29T09:07:55.251Z,32.60
2019-05-29T09:10:23.629Z,32.30
2019-05-29T09:13:03.591Z,32.10
2019-05-29T09:15:23.632Z,33.00
2019-05-29T09:17:52.961Z,33.20
2019-05-29T09:20:57.877Z,31.40
2019-05-29T09:23:02.775Z,32.00
2019-05-29T09:25:31.719Z,30.00
2019-05-29T09:28:00.645Z,31.90
2019-05-29T09:30:31.002Z,30.90
2019-05-29T09:33:00.229Z,31.50
2019-05-29T09:35:31.366Z,30.30
2019-05-29T09:38:00.379Z,29.50
2019-05-29T09:40:28.592Z,30.80
2019-05-29T09:42:56.806Z,30.30
2019-05-29T09:45:25.801Z,31.10
2019-05-29T09:47:56.905Z,36.40
2019-05-29T09:50:27.624Z,29.30
2019-05-29T09:52:57.197Z,30.90
2019-05-29T09:55:26.035Z,29.90
2019-05-29T09:57:55.310Z,29.20
2019-05-29T10:00:24.692Z,29.90
2019-05-29T10:02:52.832Z,29.00
2019-05-29T10:05:28.885Z,31.80
2019-05-29T10:08:02.132Z,30.80
2019-05-29T10:10:32.418Z,29.40
2019-05-29T10:13:00.583Z,29.90
2019-05-29T10:15:31.892Z,29.80
2019-05-29T10:18:00.708Z,29.90
2019-05-29T10:20:30.462Z,31.10
2019-05-29T10:22:58.984Z,27.40
2019-05-29T10:25:28.220Z,27.50
2019-05-29T10:27:55.971Z,28.00
2019-05-29T10:30:24.704Z,27.00
2019-05-29T10:32:53.910Z,28.80
2019-05-29T10:35:24.269Z,28.10
2019-05-29T10:37:54.318Z,27.50
2019-05-29T10:40:22.613Z,28.00
2019-05-29T10:42:51.523Z,29.90
2019-05-29T10:45:20.878Z,27.70
2019-05-29T10:47:55.018Z,28.00
2019-05-29T10:50:24.319Z,29.30
2019-05-29T10:52:54.259Z,26.80
2019-05-29T10:55:25.165Z,26.90
2019-05-29T10:58:02.750Z,27.80
2019-05-29T11:00:30.668Z,25.60
2019-05-29T11:02:59.946Z,27.80
2019-05-29T11:05:29.222Z,27.60
2019-05-29T11:08:01.991Z,26.60
2019-05-29T11:10:30.776Z,25.00
2019-05-29T11:12:58.832Z,25.10
2019-05-29T11:15:29.205Z,25.30
2019-05-29T11:17:57.426Z,27.60
2019-05-29T11:20:27.631Z,25.80
2019-05-29T11:22:58.476Z,25.80
2019-05-29T11:25:27.899Z,24.90
2019-05-29T11:27:56.795Z,26.70
2019-05-29T11:30:24.667Z,27.10
2019-05-29T11:32:54.947Z,27.00
2019-05-29T11:35:26.557Z,26.80
2019-05-29T11:37:59.612Z,27.00
2019-05-29T11:40:27.780Z,25.60
2019-05-29T11:43:00.334Z,27.50
2019-05-29T11:45:28.678Z,26.70
2019-05-29T11:48:05.153Z,27.80
2019-05-29T11:50:34.119Z,26.90
2019-05-29T11:53:02.680Z,26.20
2019-05-29T11:55:31.233Z,26.20
2019-05-29T11:58:02.042Z,26.10
2019-05-29T12:00:31.175Z,26.80
2019-05-29T12:02:59.625Z,29.00
2019-05-29T12:05:28.385Z,26.20
2019-05-29T12:08:02.626Z,29.20
2019-05-29T12:10:33.802Z,28.80
2019-05-29T12:13:02.586Z,26.80
2019-05-29T12:15:30.668Z,27.00
2019-05-29T12:18:21.926Z,26.50
2019-05-29T12:20:29.250Z,27.20
2019-05-29T12:23:18.996Z,27.50
2019-05-29T12:25:28.730Z,27.20
2019-05-29T12:27:57.374Z,26.60
2019-05-29T12:30:31.681Z,26.30
2019-05-29T12:33:01.890Z,26.70
2019-05-29T12:35:37.559Z,25.90
2019-05-29T12:38:05.829Z,26.30
2019-05-29T12:40:34.073Z,25.20
2019-05-29T12:43:03.628Z,27.00
2019-05-29T12:45:32.604Z,26.90
2019-05-29T12:48:11.188Z,26.80
2019-05-29T12:50:34.740Z,27.60
2019-05-29T12:53:03.966Z,27.20
2019-05-29T12:55:32.159Z,24.40
2019-05-29T12:58:02.429Z,27.40
2019-05-29T13:00:30.660Z,25.50
2019-05-29T13:03:02.939Z,26.60
2019-05-29T13:05:33.468Z,28.80
2019-05-29T13:08:03.227Z,25.90
2019-05-29T13:10:34.047Z,27.70
2019-05-29T13:13:10.050Z,26.70
2019-05-29T13:15:39.055Z,27.60
2019-05-29T13:18:09.883Z,26.30
2019-05-29T13:20:38.228Z,25.70
2019-05-29T13:23:08.982Z,27.20
2019-05-29T13:25:43.729Z,27.30
2019-05-29T13:29:08.285Z,27.90
2019-05-29T13:31:36.894Z,27.50
2019-05-29T13:34:06.987Z,28.90
2019-05-29T13:36:35.484Z,28.40
2019-05-29T13:39:06.331Z,28.50
2019-05-29T13:41:34.622Z,31.00
2019-05-29T13:44:04.790Z,28.00
2019-05-29T13:46:36.690Z,28.30
2019-05-29T13:49:05.074Z,28.70
2019-05-29T13:51:33.245Z,28.50
2019-05-29T13:54:13.321Z,27.70
2019-05-29T13:56:39.567Z,29.50
2019-05-29T13:59:10.597Z,29.70
2019-05-29T14:01:38.862Z,28.20
2019-05-29T14:04:08.457Z,29.40
2019-05-29T14:06:36.576Z,28.70
2019-05-29T14:09:07.563Z,29.70
2019-05-29T14:11:40.003Z,28.40
2019-05-29T14:14:16.131Z,28.10
2019-05-29T14:16:45.406Z,28.80
2019-05-29T14:19:14.706Z,29.00
2019-05-29T14:21:43.827Z,30.10
2019-05-29T14:24:28.350Z,29.50
2019-05-29T14:26:44.223Z,29.20
2019-05-29T14:29:12.412Z,29.10
2019-05-29T14:31:44.682Z,30.00
2019-05-29T14:34:13.416Z,30.00
2019-05-29T14:36:42.856Z,32.10
2019-05-29T14:39:12.033Z,29.30
2019-05-29T14:41:40.820Z,30.50
2019-05-29T14:44:12.130Z,30.90
2019-05-29T14:46:42.841Z,32.70
2019-05-29T14:49:12.063Z,30.30
2019-05-29T14:51:43.221Z,31.00
2019-05-29T14:54:13.087Z,31.50
2019-05-29T14:56:44.570Z,30.10
2019-05-29T14:59:15.699Z,30.60
2019-05-29T15:01:46.964Z,31.20
2019-05-29T15:04:18.860Z,32.90
2019-05-29T15:06:50.721Z,30.00
2019-05-29T15:09:21.721Z,32.40
2019-05-29T15:11:50.151Z,31.40
2019-05-29T15:14:21.420Z,29.50
2019-05-29T15:16:50.267Z,29.20
2019-05-29T15:19:21.628Z,30.20
2019-05-29T15:21:54.291Z,29.50
2019-05-29T15:24:22.770Z,30.40
2019-05-29T15:26:50.802Z,30.00
2019-05-29T15:29:21.489Z,32.30
2019-05-29T15:31:50.423Z,30.60
2019-05-29T15:34:21.449Z,32.40
2019-05-29T15:36:49.620Z,32.20
2019-05-29T15:39:19.654Z,34.00
2019-05-29T15:41:47.999Z,32.20
2019-05-29T15:44:17.302Z,34.80
2019-05-29T15:46:45.482Z,33.50
2019-05-29T15:49:15.100Z,33.30
2019-05-29T15:51:51.025Z,33.30
2019-05-29T15:54:19.299Z,35.80
2019-05-29T15:56:47.301Z,35.70
2019-05-29T15:59:17.092Z,33.50
2019-05-29T16:01:55.324Z,34.30
2019-05-29T16:04:25.680Z,34.10
2019-05-29T16:06:55.108Z,33.40
2019-05-29T16:09:23.673Z,35.60
2019-05-29T16:11:52.330Z,36.10
2019-05-29T16:14:21.073Z,33.90
2019-05-29T16:16:50.434Z,34.70
2019-05-29T16:19:20.439Z,35.70
2019-05-29T16:21:50.321Z,35.60
2019-05-29T16:24:23.740Z,35.00
2019-05-29T16:27:08.034Z,35.40
2019-05-29T16:29:24.482Z,36.30
2019-05-29T16:31:59.762Z,36.30
2019-05-29T16:34:27.885Z,35.10
2019-05-29T16:36:56.930Z,35.50
2019-05-29T16:39:26.946Z,36.00
2019-05-29T16:41:54.758Z,35.80
2019-05-29T16:44:27.397Z,35.70
2019-05-29T16:46:57.627Z,36.30
2019-05-29T16:49:26.324Z,37.00
2019-05-29T16:51:54.638Z,36.40
2019-05-29T16:54:23.281Z,36.40
2019-05-29T16:56:52.563Z,36.70
2019-05-29T16:59:21.359Z,37.20
2019-05-29T17:01:49.817Z,37.60
2019-05-29T17:04:18.208Z,37.90
2019-05-29T17:06:46.855Z,37.50
2019-05-29T17:09:22.341Z,37.60
2019-05-29T17:11:51.996Z,38.30
2019-05-29T17:14:25.099Z,39.10
2019-05-29T17:16:59.060Z,38.70
2019-05-29T17:19:29.823Z,38.20
2019-05-29T17:21:58.040Z,38.40
2019-05-29T17:24:27.562Z,39.00
2019-05-29T17:27:00.893Z,39.90
2019-05-29T17:29:28.873Z,38.60
2019-05-29T17:31:58.919Z,40.00
2019-05-29T17:34:27.262Z,39.20
2019-05-29T17:36:57.724Z,38.40
2019-05-29T17:39:26.221Z,38.70
2019-05-29T17:41:54.429Z,39.20
2019-05-29T17:44:23.353Z,39.70
2019-05-29T17:46:53.739Z,40.00
2019-05-29T17:49:34.123Z,40.30
2019-05-29T17:51:58.410Z,39.60
2019-05-29T17:54:26.522Z,39.80
2019-05-29T17:56:56.975Z,39.90
2019-05-29T17:59:26.324Z,40.40
2019-05-29T18:01:54.688Z,40.40
2019-05-29T18:04:24.912Z,40.10
2019-05-29T18:06:56.618Z,40.40
2019-05-29T18:09:27.929Z,40.90
2019-05-29T18:11:55.302Z,40.70
2019-05-29T18:14:25.367Z,41.60
2019-05-29T18:16:55.595Z,41.50
2019-05-29T18:19:29.990Z,41.40
2019-05-29T18:22:00.350Z,42.70
2019-05-29T18:24:28.276Z,42.00
2019-05-29T18:26:59.415Z,42.40
2019-05-29T18:29:29.640Z,42.60
2019-05-29T18:32:29.029Z,42.60
2019-05-29T18:34:56.927Z,43.00
2019-05-29T18:37:26.261Z,43.30
2019-05-29T18:39:54.552Z,44.00
2019-05-29T18:42:29.215Z,43.70
2019-05-29T18:45:00.445Z,44.50
2019-05-29T18:47:29.795Z,43.70
2019-05-29T18:50:02.279Z,44.10
2019-05-29T18:52:32.866Z,44.40
2019-05-29T18:55:03.842Z,44.10
2019-05-29T18:57:33.135Z,44.80
2019-05-29T19:00:09.919Z,44.10
2019-05-29T19:02:40.139Z,44.40
2019-05-29T19:05:08.776Z,44.80
2019-05-29T19:07:37.753Z,45.20
2019-05-29T19:10:07.048Z,45.40
2019-05-29T19:12:35.179Z,45.60
2019-05-29T19:15:06.588Z,46.50
2019-05-29T19:17:38.544Z,46.10
2019-05-29T19:20:10.098Z,46.50
2019-05-29T19:22:38.238Z,47.00
2019-05-29T19:25:08.209Z,46.60
2019-05-29T19:27:41.314Z,46.70
2019-05-29T19:30:10.127Z,47.10
2019-05-29T19:32:39.366Z,47.40
2019-05-29T19:35:09.891Z,47.60
2019-05-29T19:37:42.257Z,47.60
2019-05-29T19:40:10.642Z,47.90
2019-05-29T19:42:38.784Z,49.00
2019-05-29T19:45:12.223Z,49.30
2019-05-29T19:47:43.355Z,50.40
2019-05-29T19:50:11.834Z,50.80
2019-05-29T19:52:41.998Z,50.70
2019-05-29T19:55:10.643Z,51.30
2019-05-29T19:57:54.636Z,51.30
2019-05-29T20:00:15.067Z,52.10
2019-05-29T20:02:43.420Z,52.00
2019-05-29T20:05:11.915Z,52.00
2019-05-29T20:07:42.535Z,52.40
2019-05-29T20:10:10.507Z,53.10
2019-05-29T20:12:39.147Z,53.00
2019-05-29T20:15:09.909Z,53.00
2019-05-29T20:17:38.590Z,54.30
2019-05-29T20:20:07.347Z,54.20
2019-05-29T20:22:36.893Z,54.60
2019-05-29T20:25:06.596Z,54.70
2019-05-29T20:27:34.874Z,55.10
2019-05-29T20:30:05.883Z,55.20
2019-05-29T20:32:34.661Z,55.60
2019-05-29T20:35:10.305Z,55.50
2019-05-29T20:37:40.655Z,55.80
2019-05-29T20:40:10.479Z,55.90
2019-05-29T20:42:38.667Z,56.30
2019-05-29T20:45:06.634Z,56.50
2019-05-29T20:47:35.572Z,55.80
2019-05-29T20:50:06.286Z,55.90
2019-05-29T20:52:45.137Z,56.60
2019-05-29T20:55:16.494Z,56.40
2019-05-29T20:57:45.836Z,56.90
2019-05-29T21:00:19.263Z,56.90
2019-05-29T21:02:49.654Z,57.40
2019-05-29T21:05:22.196Z,57.10
2019-05-29T21:07:51.004Z,57.90
2019-05-29T21:10:19.505Z,58.20
2019-05-29T21:12:49.448Z,58.20
2019-05-29T21:15:41.803Z,58.60
2019-05-29T21:18:10.215Z,58.00
2019-05-29T21:20:38.473Z,58.90
2019-05-29T21:23:06.691Z,59.20
2019-05-29T21:25:38.723Z,58.30
2019-05-29T21:28:09.992Z,59.60
2019-05-29T21:30:41.724Z,59.20
2019-05-29T21:33:11.068Z,59.60
2019-05-29T21:35:44.180Z,59.00
2019-05-29T21:38:15.127Z,60.20
2019-05-29T21:40:46.726Z,59.90
2019-05-29T21:43:15.905Z,59.90
2019-05-29T21:45:45.196Z,60.30
2019-05-29T21:48:17.108Z,60.20
2019-05-29T21:50:56.970Z,60.10
2019-05-29T21:53:26.788Z,60.40
2019-05-29T21:55:56.360Z,60.90
2019-05-29T21:58:25.811Z,60.60
2019-05-29T22:01:02.770Z,61.30
2019-05-29T22:03:31.249Z,61.50
2019-05-29T22:06:06.414Z,61.00
2019-05-29T22:08:35.308Z,61.30
2019-05-29T22:11:05.694Z,62.70
2019-05-29T22:13:33.727Z,62.20
2019-05-29T22:16:03.388Z,61.50
2019-05-29T22:18:35.390Z,62.00
2019-05-29T22:21:03.605Z,61.80
2019-05-29T22:23:32.105Z,61.60
2019-05-29T22:26:01.600Z,62.30
2019-05-29T22:28:35.036Z,62.00
2019-05-29T22:31:05.848Z,62.00
2019-05-29T22:33:35.978Z,62.50
2019-05-29T22:36:06.269Z,62.20
2019-05-29T22:38:35.366Z,62.20
2019-05-29T22:41:09.478Z,62.50
2019-05-29T22:43:37.950Z,63.30
2019-05-29T22:46:06.604Z,62.10
2019-05-29T22:48:34.796Z,62.70
2019-05-29T22:51:09.156Z,62.40
2019-05-29T22:53:52.510Z,62.60
2019-05-29T22:56:28.988Z,62.60
2019-05-29T22:59:04.515Z,63.20
2019-05-29T23:01:38.698Z,62.90
2019-05-29T23:04:07.651Z,62.90
2019-05-29T23:06:45.129Z,63.90
2019-05-29T23:09:13.801Z,65.30
2019-05-29T23:11:43.889Z,63.70
2019-05-29T23:14:26.108Z,64.60
2019-05-29T23:16:58.568Z,65.00
2019-05-29T23:19:27.072Z,64.60
2019-05-29T23:22:02.854Z,65.10
2019-05-29T23:24:32.553Z,65.10
2019-05-29T23:27:03.050Z,64.80
2019-05-29T23:29:47.996Z,64.30
2019-05-29T23:32:04.630Z,65.10
2019-05-29T23:34:35.535Z,65.70
2019-05-29T23:37:14.704Z,65.00
2019-05-29T23:39:49.304Z,65.40
2019-05-29T23:42:31.077Z,65.90
2019-05-29T23:44:59.550Z,66.50
2019-05-29T23:47:28.007Z,66.30
2019-05-29T23:49:59.717Z,65.50
2019-05-29T23:52:31.190Z,66.70
2019-05-29T23:55:06.883Z,67.20
2019-05-29T23:57:36.262Z,66.60
